Time;durP1;ratioP1;P1;durP2;ratioP2;P2;SDS_P1;SDS_P2;PMS_P1;PMS_P2;Temp;Humidity;BMP_temperature;BMP_pressure;BME280_temperature;BME280_humidity;BME280_pressure;Samples;Min_cycle;Max_cycle;Signal;HPM_P1;HPM_P2
2023/08/21 00:00:04;;;;;;;2.95;1.90;;;16.20;99.90;;;;;;5135752;27;20076;-72
2023/08/21 00:02:30;;;;;;;4.72;2.03;;;16.20;99.90;;;;;;5135397;27;20118;-72
2023/08/21 00:04:56;;;;;;;4.07;2.00;;;16.20;99.90;;;;;;5135356;27;20126;-71
2023/08/21 00:07:22;;;;;;;3.30;2.22;;;16.20;99.90;;;;;;5135319;27;20101;-72
2023/08/21 00:09:48;;;;;;;5.45;2.05;;;16.20;99.90;;;;;;5134277;27;20050;-76
2023/08/21 00:12:14;;;;;;;2.35;1.95;;;16.00;99.90;;;;;;5116792;27;20047;-76
2023/08/21 00:14:39;;;;;;;3.92;2.55;;;16.00;99.90;;;;;;5117429;27;20058;-76
2023/08/21 00:17:05;;;;;;;3.20;2.05;;;16.00;99.90;;;;;;5135003;27;20068;-76
2023/08/21 00:19:32;;;;;;;3.20;2.20;;;16.10;99.90;;;;;;5135013;27;20123;-76
2023/08/21 00:21:58;;;;;;;2.60;2.25;;;16.00;99.90;;;;;;5135461;27;20143;-76
2023/08/21 00:24:24;;;;;;;4.30;2.03;;;16.00;99.90;;;;;;5134909;27;20464;-76
2023/08/21 00:26:49;;;;;;;2.15;1.88;;;15.90;99.90;;;;;;5135182;27;20039;-75
2023/08/21 00:29:15;;;;;;;3.17;2.33;;;15.90;99.90;;;;;;5134458;27;20122;-76
2023/08/21 00:31:40;;;;;;;3.42;2.20;;;15.80;99.90;;;;;;5134815;27;20043;-75
2023/08/21 00:34:06;;;;;;;3.42;2.63;;;15.80;99.90;;;;;;5134887;27;20113;-76
2023/08/21 00:36:32;;;;;;;2.92;2.22;;;15.70;99.90;;;;;;5134352;27;20482;-76
2023/08/21 00:38:57;;;;;;;1.98;1.77;;;15.70;99.90;;;;;;5134468;27;20042;-76
2023/08/21 00:41:24;;;;;;;4.28;2.25;;;15.80;99.90;;;;;;5134395;27;20051;-76
2023/08/21 00:43:49;;;;;;;2.08;1.90;;;15.80;99.90;;;;;;5134698;27;20039;-76
2023/08/21 00:46:15;;;;;;;1.70;1.60;;;15.80;99.90;;;;;;5134559;27;20365;-76
2023/08/21 00:48:42;;;;;;;2.42;1.60;;;15.70;99.90;;;;;;5134032;27;20507;-76
2023/08/21 00:51:08;;;;;;;1.98;1.88;;;15.70;99.90;;;;;;5115879;27;20420;-76
2023/08/21 00:53:34;;;;;;;4.13;1.90;;;15.70;99.90;;;;;;5134626;27;20058;-75
2023/08/21 00:56:00;;;;;;;3.88;1.83;;;15.60;99.90;;;;;;5134265;27;20059;-76
2023/08/21 00:58:26;;;;;;;3.75;2.65;;;15.60;99.90;;;;;;5134149;27;20039;-76
2023/08/21 01:00:52;;;;;;;3.30;1.90;;;15.50;99.90;;;;;;5134071;27;20133;-76
2023/08/21 01:03:19;;;;;;;3.42;2.63;;;15.40;99.90;;;;;;5134746;27;20053;-76
2023/08/21 01:05:45;;;;;;;9.32;2.50;;;15.30;99.90;;;;;;5115721;27;20477;-76
2023/08/21 01:08:21;;;;;;;4.68;1.90;;;15.30;99.90;;;;;;5133678;27;20407;-76
2023/08/21 01:11:05;;;;;;;2.50;1.98;;;15.30;99.90;;;;;;5134027;27;20467;-76
2023/08/21 01:14:00;;;;;;;2.53;1.90;;;15.30;99.90;;;;;;5134338;27;20043;-76
2023/08/21 01:16:29;;;;;;;2.53;2.22;;;15.30;99.90;;;;;;5134386;27;20086;-76
2023/08/21 01:18:54;;;;;;;5.38;2.63;;;15.20;99.90;;;;;;5133718;27;20046;-76
2023/08/21 01:21:20;;;;;;;7.30;2.83;;;15.10;99.90;;;;;;5133943;27;20133;-76
2023/08/21 01:23:46;;;;;;;4.82;2.30;;;15.10;99.90;;;;;;5134503;27;20130;-76
2023/08/21 01:26:12;;;;;;;4.28;2.35;;;15.00;99.90;;;;;;5133789;27;20367;-76
2023/08/21 01:28:38;;;;;;;4.18;2.75;;;15.00;99.90;;;;;;5134249;27;20035;-75
2023/08/21 01:31:15;;;;;;;4.88;2.53;;;15.00;99.90;;;;;;5133774;27;20047;-75
2023/08/21 01:33:47;;;;;;;2.38;2.17;;;15.00;99.90;;;;;;5134425;27;20050;-75
2023/08/21 01:36:14;;;;;;;3.92;2.45;;;15.00;99.90;;;;;;5134499;27;20083;-75
2023/08/21 01:38:40;;;;;;;5.07;2.15;;;15.00;99.90;;;;;;5133750;27;20370;-76
2023/08/21 01:41:06;;;;;;;3.83;2.22;;;15.00;99.90;;;;;;5115323;28;20047;-75
2023/08/21 01:43:31;;;;;;;2.42;1.98;;;15.00;99.90;;;;;;5134010;28;20043;-75
2023/08/21 01:45:57;;;;;;;5.28;2.22;;;14.90;99.90;;;;;;5133608;28;20589;-76
2023/08/21 01:48:23;;;;;;;4.05;2.20;;;14.80;99.90;;;;;;5134118;28;20105;-75
2023/08/21 01:50:49;;;;;;;1.85;1.70;;;14.70;99.90;;;;;;5133647;28;20483;-75
2023/08/21 01:53:15;;;;;;;3.80;1.75;;;14.70;99.90;;;;;;5133193;28;20495;-75
2023/08/21 01:55:40;;;;;;;2.30;1.50;;;14.80;99.90;;;;;;5134111;28;20047;-76
2023/08/21 01:58:06;;;;;;;2.45;2.03;;;14.80;99.90;;;;;;5115596;28;20472;-76
2023/08/21 02:00:32;;;;;;;2.33;1.58;;;14.80;99.90;;;;;;5116052;28;20114;-75
2023/08/21 02:02:57;;;;;;;2.17;1.92;;;14.70;99.90;;;;;;5136985;27;20096;-76
2023/08/21 02:05:23;;;;;;;1.60;1.50;;;14.70;99.90;;;;;;5137629;27;20051;-75
2023/08/21 02:07:48;;;;;;;3.05;1.70;;;14.70;99.90;;;;;;5137510;27;20085;-76
2023/08/21 02:10:14;;;;;;;2.80;1.90;;;14.60;99.90;;;;;;5119746;27;20133;-75
2023/08/21 02:12:40;;;;;;;2.67;1.58;;;14.60;99.90;;;;;;5137654;27;20039;-76
2023/08/21 02:15:06;;;;;;;1.30;1.20;;;14.60;99.90;;;;;;5137972;27;20075;-76
2023/08/21 02:17:32;;;;;;;1.80;1.70;;;14.60;99.90;;;;;;5119083;27;20043;-75
2023/08/21 02:19:58;;;;;;;2.83;1.90;;;14.60;99.90;;;;;;5137264;27;20047;-75
2023/08/21 02:22:23;;;;;;;1.85;1.70;;;14.60;99.90;;;;;;5136920;27;20058;-75
2023/08/21 02:24:49;;;;;;;3.45;1.90;;;14.50;99.90;;;;;;5137599;27;20054;-75
2023/08/21 02:27:15;;;;;;;2.83;1.80;;;14.50;99.90;;;;;;5137693;27;20055;-75
2023/08/21 02:29:40;;;;;;;1.88;1.70;;;14.40;99.90;;;;;;5137348;27;20448;-75
2023/08/21 02:32:06;;;;;;;1.40;1.30;;;14.40;99.90;;;;;;5137142;27;20043;-75
2023/08/21 02:34:32;;;;;;;3.15;1.85;;;14.40;99.90;;;;;;5137246;27;20055;-75
2023/08/21 02:36:58;;;;;;;3.50;1.60;;;14.30;99.90;;;;;;5137448;27;20550;-75
2023/08/21 02:39:24;;;;;;;1.85;1.60;;;14.30;99.90;;;;;;5136781;27;20051;-75
2023/08/21 02:41:49;;;;;;;2.88;1.50;;;14.30;99.90;;;;;;5136933;27;20475;-75
2023/08/21 02:44:15;;;;;;;2.60;1.77;;;14.30;99.90;;;;;;5137197;27;20428;-75
2023/08/21 02:46:41;;;;;;;3.95;1.60;;;14.20;99.90;;;;;;5137345;27;20039;-75
2023/08/21 02:49:06;;;;;;;2.60;2.40;;;14.20;99.90;;;;;;5137322;27;20495;-76
2023/08/21 02:51:32;;;;;;;4.47;1.95;;;14.10;99.90;;;;;;5136800;27;20043;-75
2023/08/21 02:53:58;;;;;;;2.72;2.00;;;14.10;99.90;;;;;;5135987;27;20135;-75
2023/08/21 02:56:24;;;;;;;4.82;2.20;;;14.70;99.90;;;;;;5137302;27;20066;-75
2023/08/21 02:58:49;;;;;;;1.80;1.58;;;14.10;99.90;;;;;;5118814;27;20035;-76
2023/08/21 03:01:15;;;;;;;3.33;1.95;;;14.00;99.90;;;;;;5118986;27;20518;-75
2023/08/21 03:03:40;;;;;;;3.50;1.67;;;14.00;99.90;;;;;;5118375;27;20047;-75
2023/08/21 03:06:06;;;;;;;4.65;2.35;;;14.10;99.90;;;;;;5137056;27;20047;-76
2023/08/21 03:08:32;;;;;;;2.88;2.60;;;14.10;99.90;;;;;;5118577;27;20039;-75
2023/08/21 03:10:58;;;;;;;2.85;2.55;;;14.00;99.90;;;;;;5136690;27;20118;-75
2023/08/21 03:13:23;;;;;;;3.33;2.58;;;14.00;99.90;;;;;;5135859;27;20089;-75
2023/08/21 03:15:49;;;;;;;4.15;2.25;;;14.00;99.90;;;;;;5136160;27;20039;-75
2023/08/21 03:18:15;;;;;;;3.40;2.35;;;14.00;99.90;;;;;;5136159;27;20211;-86
2023/08/21 03:20:46;;;;;;;4.00;2.53;;;14.00;99.90;;;;;;5136200;27;20047;-85
2023/08/21 03:23:13;;;;;;;3.80;2.22;;;14.00;99.90;;;;;;5117934;27;20039;-80
2023/08/21 03:25:39;;;;;;;3.03;2.10;;;14.00;99.90;;;;;;5136502;27;20039;-82
2023/08/21 03:28:04;;;;;;;2.85;2.05;;;14.00;99.90;;;;;;5101581;27;20058;-81
2023/08/21 03:30:30;;;;;;;3.40;2.10;;;13.90;99.90;;;;;;5136043;27;20039;-84
2023/08/21 03:32:56;;;;;;;4.32;2.85;;;13.90;99.90;;;;;;5136130;27;20107;-84
2023/08/21 03:35:21;;;;;;;2.47;2.28;;;13.90;99.90;;;;;;5137033;27;20046;-83
2023/08/21 03:37:47;;;;;;;2.35;2.00;;;13.90;99.90;;;;;;5145065;27;20035;-82
2023/08/21 03:40:13;;;;;;;2.53;1.70;;;13.90;99.90;;;;;;5148291;27;20054;-82
2023/08/21 03:42:38;;;;;;;2.08;1.88;;;13.90;99.90;;;;;;5130336;27;20047;-82
2023/08/21 03:45:05;;;;;;;1.88;1.33;;;13.90;99.90;;;;;;5129235;27;20046;-82
2023/08/21 03:47:31;;;;;;;1.73;1.60;;;13.90;99.90;;;;;;5147448;27;20039;-81
2023/08/21 03:49:56;;;;;;;2.10;1.90;;;13.90;99.90;;;;;;5140755;27;20050;-83
2023/08/21 03:52:22;;;;;;;1.60;1.10;;;13.90;99.90;;;;;;5145030;27;20122;-82
2023/08/21 03:54:48;;;;;;;2.17;1.45;;;13.80;99.90;;;;;;5142275;27;20047;-83
2023/08/21 03:57:13;;;;;;;3.20;1.50;;;13.80;99.90;;;;;;5136871;27;20463;-81
2023/08/21 03:59:39;;;;;;;2.72;1.73;;;13.80;99.90;;;;;;5136202;27;20047;-83
2023/08/21 04:02:06;;;;;;;20.88;3.47;;;13.70;99.90;;;;;;5100970;27;20063;-84
2023/08/21 04:04:32;;;;;;;1.45;1.20;;;13.80;99.90;;;;;;5135371;27;20086;-82
2023/08/21 04:06:57;;;;;;;1.38;1.27;;;13.80;99.90;;;;;;5135584;27;20364;-83
2023/08/21 04:09:23;;;;;;;2.47;2.28;;;13.80;99.90;;;;;;5135658;27;20047;-83
2023/08/21 04:11:49;;;;;;;2.65;1.98;;;13.80;99.90;;;;;;5135042;27;20051;-82
2023/08/21 04:14:14;;;;;;;1.67;1.42;;;13.80;99.90;;;;;;5117623;27;20047;-83
2023/08/21 04:16:40;;;;;;;4.82;1.85;;;13.80;99.90;;;;;;5135352;27;20093;-85
2023/08/21 04:19:06;;;;;;;2.38;2.03;;;13.80;99.90;;;;;;5117145;27;20042;-80
2023/08/21 04:21:31;;;;;;;3.63;1.73;;;13.90;99.90;;;;;;5134867;27;20086;-80
2023/08/21 04:23:57;;;;;;;2.40;1.80;;;13.90;99.90;;;;;;5134838;27;20049;-82
2023/08/21 04:26:23;;;;;;;1.77;1.67;;;13.90;99.90;;;;;;5134805;27;20039;-80
2023/08/21 04:28:48;;;;;;;2.70;1.88;;;13.90;99.90;;;;;;5134767;27;20043;-79
2023/08/21 04:31:14;;;;;;;1.98;1.85;;;13.90;99.90;;;;;;5134757;27;20086;-80
2023/08/21 04:33:40;;;;;;;1.98;1.67;;;14.00;99.90;;;;;;5134771;27;20039;-80
2023/08/21 04:36:05;;;;;;;2.20;1.83;;;13.90;99.90;;;;;;5134881;27;20195;-78
2023/08/21 04:38:31;;;;;;;2.65;2.35;;;13.90;99.90;;;;;;5134924;27;20036;-80
2023/08/21 04:41:08;;;;;;;3.03;2.15;;;13.80;99.90;;;;;;5116188;27;20043;-80
2023/08/21 04:43:34;;;;;;;4.25;2.33;;;13.90;99.90;;;;;;5135132;27;20046;-80
2023/08/21 04:46:00;;;;;;;3.60;2.13;;;13.80;99.90;;;;;;5116371;27;20387;-80
2023/08/21 04:48:26;;;;;;;3.08;2.67;;;13.90;99.90;;;;;;5134389;27;20054;-80
2023/08/21 04:50:52;;;;;;;2.95;2.15;;;13.80;99.90;;;;;;5134887;27;20047;-79
2023/08/21 04:53:18;;;;;;;3.40;2.22;;;13.80;99.90;;;;;;5134573;27;20337;-79
2023/08/21 04:55:43;;;;;;;3.17;2.40;;;13.80;99.90;;;;;;5134219;27;20055;-79
2023/08/21 04:58:10;;;;;;;2.90;2.28;;;13.80;99.90;;;;;;5115784;27;20039;-81
2023/08/21 05:00:36;;;;;;;1.95;1.85;;;13.80;99.90;;;;;;5134063;27;20488;-80
2023/08/21 05:03:02;;;;;;;2.95;2.10;;;13.80;99.90;;;;;;5134060;27;20491;-78
2023/08/21 05:05:28;;;;;;;4.20;2.20;;;13.80;99.90;;;;;;5134007;27;20050;-80
2023/08/21 05:07:53;;;;;;;7.75;2.30;;;13.80;99.90;;;;;;5133985;27;20043;-79
2023/08/21 05:10:19;;;;;;;3.05;2.25;;;13.90;99.90;;;;;;5134187;27;20063;-80
2023/08/21 05:12:46;;;;;;;3.60;2.90;;;13.90;99.90;;;;;;5134419;27;20441;-81
2023/08/21 05:15:11;;;;;;;2.40;1.80;;;14.00;99.90;;;;;;5133724;27;20043;-80
2023/08/21 05:17:37;;;;;;;4.07;2.17;;;14.00;99.90;;;;;;5133743;27;20047;-80
2023/08/21 05:20:04;;;;;;;5.85;2.72;;;14.10;99.90;;;;;;5133751;27;20055;-80
2023/08/21 05:22:29;;;;;;;3.28;2.13;;;14.10;99.90;;;;;;5133761;27;20067;-80
2023/08/21 05:24:55;;;;;;;5.05;2.75;;;14.20;99.90;;;;;;5116220;27;20084;-80
2023/08/21 05:27:21;;;;;;;4.88;2.42;;;14.20;99.90;;;;;;5133635;27;20090;-79
2023/08/21 05:29:47;;;;;;;3.47;2.10;;;14.30;99.90;;;;;;5098507;27;20050;-80
2023/08/21 05:32:12;;;;;;;6.15;3.10;;;14.40;99.90;;;;;;5133870;27;20118;-79
2023/08/21 05:34:38;;;;;;;6.50;3.03;;;14.40;99.90;;;;;;5133535;27;20448;-80
2023/08/21 05:37:04;;;;;;;4.30;2.40;;;14.50;99.90;;;;;;5133355;27;20075;-82
2023/08/21 05:39:29;;;;;;;3.38;2.20;;;14.60;99.90;;;;;;5133421;27;20047;-81
2023/08/21 05:41:55;;;;;;;3.45;2.40;;;14.70;99.90;;;;;;5115693;28;20050;-81
2023/08/21 05:44:21;;;;;;;5.07;2.70;;;14.70;99.90;;;;;;5133821;28;20093;-79
2023/08/21 05:46:47;;;;;;;4.38;2.20;;;14.80;99.90;;;;;;5133402;28;20058;-84
2023/08/21 05:49:12;;;;;;;3.22;2.15;;;14.90;99.90;;;;;;5115979;28;20080;-84
2023/08/21 05:51:38;;;;;;;2.50;2.30;;;15.10;99.90;;;;;;5115468;28;20043;-82
2023/08/21 05:54:04;;;;;;;4.78;2.92;;;15.10;99.90;;;;;;5133384;28;20121;-82
2023/08/21 05:56:29;;;;;;;4.50;2.63;;;15.20;99.90;;;;;;5134372;28;20096;-82
2023/08/21 05:58:55;;;;;;;5.28;3.28;;;15.20;99.90;;;;;;5132969;28;20049;-83
2023/08/21 06:01:21;;;;;;;3.58;2.67;;;15.30;99.90;;;;;;5115729;28;20051;-83
2023/08/21 06:03:46;;;;;;;5.97;2.65;;;15.40;99.90;;;;;;5114813;28;20126;-83
2023/08/21 06:06:12;;;;;;;7.03;3.70;;;15.50;99.90;;;;;;5133169;28;20039;-84
2023/08/21 06:08:38;;;;;;;7.53;3.28;;;15.60;99.90;;;;;;5114876;28;20103;-84
2023/08/21 06:11:03;;;;;;;9.73;5.53;;;15.70;99.90;;;;;;5114866;28;20050;-86
2023/08/21 06:13:30;;;;;;;4.90;3.95;;;15.80;99.90;;;;;;5133026;28;20039;-84
2023/08/21 06:15:56;;;;;;;5.03;2.78;;;15.90;99.90;;;;;;5098479;28;20067;-84
2023/08/21 06:18:21;;;;;;;4.85;3.70;;;16.10;99.90;;;;;;5133021;28;20391;-84
2023/08/21 06:20:48;;;;;;;8.57;3.75;;;16.20;99.90;;;;;;5133374;28;20345;-84
2023/08/21 06:23:14;;;;;;;6.05;3.25;;;16.30;99.90;;;;;;5133052;28;20065;-85
2023/08/21 06:25:44;;;;;;;5.05;3.63;;;16.50;99.90;;;;;;5132938;28;20051;-84
2023/08/21 06:28:09;;;;;;;5.88;3.30;;;16.60;99.90;;;;;;5133137;28;20548;-85
2023/08/21 06:30:35;;;;;;;4.18;3.38;;;16.70;99.90;;;;;;5133024;28;20051;-85
2023/08/21 06:33:01;;;;;;;9.25;3.63;;;16.80;99.90;;;;;;5115162;28;20055;-85
2023/08/21 06:35:27;;;;;;;6.25;2.83;;;16.90;99.90;;;;;;5132910;28;20092;-84
2023/08/21 06:37:54;;;;;;;5.47;2.90;;;17.10;99.90;;;;;;5114626;28;20100;-85
2023/08/21 06:40:20;;;;;;;4.57;2.88;;;17.20;99.90;;;;;;5132907;28;20082;-85
2023/08/21 06:42:45;;;;;;;4.40;2.25;;;17.30;99.90;;;;;;5132469;28;20170;-84
2023/08/21 06:45:11;;;;;;;6.00;2.92;;;17.50;99.90;;;;;;5132838;28;20075;-84
2023/08/21 06:47:36;;;;;;;5.45;3.08;;;17.60;99.90;;;;;;5097669;28;20372;-84
2023/08/21 06:50:02;;;;;;;5.25;2.60;;;17.80;99.90;;;;;;5136065;27;20391;-84
2023/08/21 06:52:28;;;;;;;5.75;2.35;;;18.00;99.90;;;;;;5136948;27;20482;-84
2023/08/21 06:54:54;;;;;;;3.85;2.25;;;18.20;99.90;;;;;;5136198;27;20540;-84
2023/08/21 06:57:19;;;;;;;4.53;2.20;;;18.30;99.90;;;;;;5118087;27;20144;-85
2023/08/21 06:59:45;;;;;;;2.95;2.22;;;18.50;99.90;;;;;;5136513;27;20075;-85
2023/08/21 07:02:11;;;;;;;4.13;2.00;;;18.60;99.90;;;;;;5101120;27;20092;-84
2023/08/21 07:04:37;;;;;;;4.60;2.05;;;18.90;99.90;;;;;;5136424;27;20463;-85
2023/08/21 07:07:02;;;;;;;4.78;2.08;;;19.40;99.90;;;;;;5136328;27;20043;-81
2023/08/21 07:09:28;;;;;;;4.15;1.60;;;20.70;99.90;;;;;;5136858;27;20039;-82
2023/08/21 07:11:55;;;;;;;3.10;1.80;;;22.20;99.90;;;;;;5117755;27;20399;-78
2023/08/21 07:14:20;;;;;;;3.47;1.35;;;23.80;99.90;;;;;;5136552;27;20049;-81
2023/08/21 07:16:46;;;;;;;3.60;1.60;;;25.10;99.90;;;;;;5118064;27;20039;-82
2023/08/21 07:19:12;;;;;;;2.72;1.60;;;26.20;99.90;;;;;;5136418;27;20047;-80
2023/08/21 07:21:38;;;;;;;5.45;1.75;;;27.40;99.90;;;;;;5117714;27;20043;-82
2023/08/21 07:24:04;;;;;;;3.47;1.70;;;27.90;99.90;;;;;;5136190;27;20047;-82
2023/08/21 07:26:30;;;;;;;2.90;1.10;;;28.60;99.90;;;;;;5136205;27;20376;-83
2023/08/21 07:28:56;;;;;;;2.47;1.48;;;29.30;99.90;;;;;;5136333;27;20049;-83
2023/08/21 07:31:22;;;;;;;2.63;1.00;;;29.90;99.90;;;;;;5136062;27;20043;-82
2023/08/21 07:33:48;;;;;;;2.25;1.20;;;30.10;99.90;;;;;;5137862;27;20485;-81
2023/08/21 07:36:17;;;;;;;1.58;1.08;;;30.40;99.80;;;;;;5141347;27;20051;-82
2023/08/21 07:38:45;;;;;;;2.15;1.25;;;30.90;98.60;;;;;;5140156;27;20158;-82
2023/08/21 07:41:13;;;;;;;2.72;1.10;;;30.90;96.60;;;;;;5138191;27;20088;-83
2023/08/21 07:43:41;;;;;;;4.00;1.10;;;31.00;96.60;;;;;;5137689;27;20453;-82
2023/08/21 07:46:09;;;;;;;4.03;1.50;;;31.30;95.50;;;;;;5141387;27;20078;-83
2023/08/21 07:48:35;;;;;;;1.20;0.80;;;31.40;95.10;;;;;;5122308;27;20086;-83
2023/08/21 07:51:01;;;;;;;2.38;1.17;;;31.70;94.70;;;;;;5122580;27;20043;-83
2023/08/21 07:53:27;;;;;;;2.63;1.30;;;31.80;94.30;;;;;;5139955;27;20053;-83
2023/08/21 07:55:53;;;;;;;1.77;0.95;;;32.10;93.70;;;;;;5136170;27;20444;-83
2023/08/21 07:58:22;;;;;;;2.72;1.15;;;32.60;93.30;;;;;;5135903;27;20118;-81
2023/08/21 08:00:48;;;;;;;1.73;0.77;;;32.50;92.60;;;;;;5135589;27;20130;-83
2023/08/21 08:03:14;;;;;;;5.00;1.27;;;32.60;92.50;;;;;;5135375;27;20134;-83
2023/08/21 08:05:41;;;;;;;1.95;1.08;;;33.20;92.30;;;;;;5135248;27;20051;-84
2023/08/21 08:08:08;;;;;;;2.30;1.00;;;33.50;91.90;;;;;;5134935;27;20122;-83
2023/08/21 08:10:36;;;;;;;1.98;0.98;;;33.60;91.80;;;;;;5135153;27;20055;-83
2023/08/21 08:13:02;;;;;;;3.30;1.00;;;33.10;91.30;;;;;;5135455;27;20513;-83
2023/08/21 08:15:27;;;;;;;3.35;1.00;;;33.50;91.00;;;;;;5134946;27;20051;-83
2023/08/21 08:17:54;;;;;;;3.00;1.23;;;33.70;90.80;;;;;;5134924;27;20043;-84
2023/08/21 08:20:20;;;;;;;2.85;1.20;;;33.90;90.00;;;;;;5134919;27;20082;-84
2023/08/21 08:22:46;;;;;;;1.20;0.73;;;34.00;90.00;;;;;;5116870;27;20043;-85
2023/08/21 08:25:13;;;;;;;1.33;0.77;;;34.10;89.80;;;;;;5134690;27;20039;-84
2023/08/21 08:27:39;;;;;;;2.17;1.30;;;34.20;88.60;;;;;;5134890;27;20126;-84
2023/08/21 08:30:06;;;;;;;1.80;1.00;;;34.30;88.30;;;;;;5134731;27;20043;-85
2023/08/21 08:32:31;;;;;;;2.08;1.00;;;33.90;87.80;;;;;;5134608;27;20047;-84
2023/08/21 08:34:57;;;;;;;1.55;0.90;;;34.20;88.30;;;;;;5116524;27;20039;-85
2023/08/21 08:37:23;;;;;;;1.65;1.00;;;34.50;88.00;;;;;;5117516;27;20042;-86
2023/08/21 08:39:49;;;;;;;3.33;0.90;;;34.50;87.60;;;;;;5135039;27;20087;-84
2023/08/21 08:42:15;;;;;;;1.88;0.93;;;34.60;87.10;;;;;;5135476;27;20451;-86
2023/08/21 08:44:43;;;;;;;2.45;1.30;;;34.70;86.50;;;;;;5134862;27;20039;-84
2023/08/21 08:47:10;;;;;;;2.13;1.05;;;34.70;86.00;;;;;;5134767;27;20042;-75
2023/08/21 08:49:37;;;;;;;2.15;1.30;;;34.60;85.80;;;;;;5134873;27;20043;-82
2023/08/21 08:52:04;;;;;;;2.78;1.10;;;34.30;85.80;;;;;;5134722;27;20386;-84
2023/08/21 08:54:30;;;;;;;2.17;1.15;;;34.60;85.80;;;;;;5134602;27;20039;-83
2023/08/21 08:56:57;;;;;;;2.47;1.10;;;34.50;85.50;;;;;;5134792;27;20055;-83
2023/08/21 08:59:22;;;;;;;1.88;1.00;;;34.40;83.70;;;;;;5134666;27;20104;-84
2023/08/21 09:01:48;;;;;;;1.50;0.95;;;34.30;83.80;;;;;;5134766;27;20047;-82
2023/08/21 09:04:14;;;;;;;1.15;1.02;;;34.20;84.00;;;;;;5134994;27;20049;-84
2023/08/21 09:06:40;;;;;;;2.60;0.90;;;34.70;83.20;;;;;;5135787;27;20057;-83
2023/08/21 09:09:10;;;;;;;1.75;1.30;;;34.80;82.90;;;;;;5147023;27;20091;-84
2023/08/21 09:11:41;;;;;;;2.63;0.98;;;34.80;83.10;;;;;;5157271;27;20096;-84
2023/08/21 09:14:07;;;;;;;3.00;1.23;;;34.70;82.70;;;;;;5153403;27;20110;-83
2023/08/21 09:16:33;;;;;;;4.93;1.27;;;34.80;82.50;;;;;;5115606;27;20082;-82
2023/08/21 09:18:59;;;;;;;2.05;1.05;;;35.20;82.30;;;;;;5115742;27;20081;-82
2023/08/21 09:21:27;;;;;;;4.07;1.25;;;35.40;82.30;;;;;;5134045;27;20043;-82
2023/08/21 09:24:02;;;;;;;2.05;1.00;;;35.30;81.70;;;;;;5133646;27;20046;-82
2023/08/21 09:26:34;;;;;;;3.50;1.30;;;35.30;80.00;;;;;;5133818;27;20050;-82
2023/08/21 09:29:04;;;;;;;;;;;35.20;80.20;;;;;;5134318;27;20054;-81
2023/08/21 09:31:31;;;;;;;1.75;1.05;;;34.90;77.90;;;;;;5133717;27;20359;-83
2023/08/21 09:34:04;;;;;;;3.03;1.17;;;34.70;81.20;;;;;;5115311;27;20115;-81
2023/08/21 09:36:30;;;;;;;2.92;1.00;;;34.80;81.20;;;;;;5115826;28;20039;-82
2023/08/21 09:38:56;;;;;;;4.95;1.30;;;34.80;80.80;;;;;;5133428;27;20043;-82
2023/08/21 09:41:23;;;;;;;1.30;0.93;;;34.80;80.30;;;;;;5098464;28;20047;-81
2023/08/21 09:43:49;;;;;;;1.50;1.00;;;34.60;80.40;;;;;;5133555;28;20047;-83
2023/08/21 09:46:16;;;;;;;1.48;0.93;;;34.70;79.50;;;;;;5133396;28;20501;-81
2023/08/21 09:48:45;;;;;;;2.95;1.08;;;34.80;79.10;;;;;;5133413;28;20104;-83
2023/08/21 09:51:11;;;;;;;1.83;1.00;;;35.00;78.50;;;;;;5133408;28;20047;-82
2023/08/21 09:53:37;;;;;;;2.78;1.20;;;34.70;78.10;;;;;;5115827;28;20074;-82
2023/08/21 09:56:03;;;;;;;1.98;1.13;;;34.40;77.80;;;;;;5133132;28;20471;-83
2023/08/21 09:58:29;;;;;;;2.10;1.10;;;34.50;78.60;;;;;;5133367;28;20476;-82
2023/08/21 10:00:58;;;;;;;1.80;1.20;;;34.60;78.30;;;;;;5133493;28;20111;-80
2023/08/21 10:03:25;;;;;;;1.45;0.85;;;34.70;77.30;;;;;;5115341;28;20122;-79
2023/08/21 10:05:54;;;;;;;2.08;1.30;;;34.80;78.50;;;;;;5133519;28;20122;-81
2023/08/21 10:08:26;;;;;;;2.60;0.98;;;34.60;79.00;;;;;;5133302;28;20086;-83
2023/08/21 10:10:52;;;;;;;3.60;1.75;;;34.60;77.80;;;;;;5133362;28;20043;-82
2023/08/21 10:13:18;;;;;;;2.28;0.90;;;34.60;78.20;;;;;;5133416;28;20043;-81
2023/08/21 10:15:45;;;;;;;1.25;1.02;;;34.70;77.60;;;;;;5115306;28;20054;-83
2023/08/21 10:18:21;;;;;;;3.25;1.30;;;34.30;77.30;;;;;;5133086;28;20043;-83
2023/08/21 10:20:47;;;;;;;1.40;0.75;;;34.70;77.40;;;;;;5133437;28;20043;-82
2023/08/21 10:23:30;;;;;;;4.60;1.40;;;34.90;78.50;;;;;;5135396;27;20130;-79
2023/08/21 10:26:00;;;;;;;1.15;1.00;;;34.70;75.90;;;;;;5137410;27;20047;-83
2023/08/21 10:28:50;;;;;;;1.73;1.00;;;34.10;76.30;;;;;;5137184;27;20031;-85
2023/08/21 10:31:42;;;;;;;3.03;1.17;;;34.20;76.20;;;;;;5137221;27;20406;-85
2023/08/21 10:34:13;;;;;;;1.65;1.10;;;34.10;76.10;;;;;;5137064;27;20502;-83
2023/08/21 10:36:59;;;;;;;2.25;0.93;;;34.20;76.20;;;;;;5136961;27;20039;-82
2023/08/21 10:39:26;;;;;;;2.38;1.02;;;34.20;76.50;;;;;;5136574;27;20035;-83
2023/08/21 10:42:03;;;;;;;1.73;0.90;;;34.60;76.00;;;;;;5136722;27;20118;-81
2023/08/21 10:45:05;;;;;;;3.05;0.90;;;34.50;74.90;;;;;;5136726;27;20043;-83
2023/08/21 10:47:34;;;;;;;1.15;0.70;;;34.60;74.90;;;;;;5137086;27;20122;-84
2023/08/21 10:50:03;;;;;;;3.05;0.85;;;34.20;75.10;;;;;;5118006;27;20047;-82
2023/08/21 10:52:44;;;;;;;3.88;1.17;;;34.00;74.90;;;;;;5137223;27;20159;-83
2023/08/21 10:55:12;;;;;;;2.72;1.20;;;33.70;75.10;;;;;;5136326;27;20097;-82
2023/08/21 10:57:38;;;;;;;2.92;0.98;;;33.20;76.20;;;;;;5136928;27;20051;-83
2023/08/21 11:00:11;;;;;;;2.05;1.02;;;32.70;76.60;;;;;;5136183;27;20482;-81
2023/08/21 11:02:38;;;;;;;2.13;1.23;;;32.00;76.90;;;;;;5118197;27;20046;-81
2023/08/21 11:05:05;;;;;;;3.47;1.58;;;31.30;76.60;;;;;;5136683;27;20058;-82
2023/08/21 11:07:41;;;;;;;2.78;0.93;;;30.60;77.90;;;;;;5136624;27;20051;-82
2023/08/21 11:10:10;;;;;;;2.63;1.27;;;30.30;79.10;;;;;;5136755;27;20054;-81
2023/08/21 11:12:36;;;;;;;3.50;1.25;;;30.10;78.20;;;;;;5136652;27;20049;-81
2023/08/21 11:15:03;;;;;;;2.90;1.45;;;30.00;78.40;;;;;;5136401;27;20051;-82
2023/08/21 11:17:29;;;;;;;1.75;1.40;;;29.90;78.80;;;;;;5136201;27;20108;-82
2023/08/21 11:19:56;;;;;;;3.13;1.27;;;29.70;78.90;;;;;;5136353;27;20047;-81
2023/08/21 11:22:30;;;;;;;1.95;1.20;;;29.60;78.70;;;;;;5136456;27;20079;-82
2023/08/21 11:24:55;;;;;;;3.70;1.27;;;29.60;78.30;;;;;;5136279;27;20054;-83
2023/08/21 11:27:21;;;;;;;1.63;1.50;;;29.60;79.50;;;;;;5118769;27;20043;-81
2023/08/21 11:29:51;;;;;;;3.08;1.20;;;29.60;80.00;;;;;;5136815;27;20549;-82
2023/08/21 11:32:23;;;;;;;4.18;1.30;;;29.60;80.00;;;;;;5142446;27;20046;-82
2023/08/21 11:34:54;;;;;;;2.13;1.30;;;29.60;79.60;;;;;;5141184;27;20043;-82
2023/08/21 11:37:22;;;;;;;2.47;1.27;;;29.50;80.40;;;;;;5140755;27;20063;-82
2023/08/21 11:39:51;;;;;;;2.30;1.25;;;29.40;81.30;;;;;;5136542;27;20043;-81
2023/08/21 11:42:18;;;;;;;2.45;1.27;;;29.20;80.90;;;;;;5139772;27;20047;-81
2023/08/21 11:44:50;;;;;;;2.88;1.35;;;29.10;80.40;;;;;;5141941;27;20130;-83
2023/08/21 11:47:17;;;;;;;;;;;28.90;80.60;;;;;;5141533;27;20051;-81
2023/08/21 11:49:44;;;;;;;2.30;1.23;;;28.80;82.20;;;;;;5120092;27;19919;-81
2023/08/21 11:52:11;;;;;;;3.20;1.17;;;28.80;80.40;;;;;;5136479;27;20062;-82
2023/08/21 11:54:38;;;;;;;1.83;1.35;;;28.50;80.80;;;;;;5135530;27;20462;-81
2023/08/21 11:57:05;;;;;;;3.28;1.85;;;28.50;81.50;;;;;;5136240;27;20087;-82
2023/08/21 11:59:31;;;;;;;2.33;1.50;;;28.70;81.10;;;;;;5135202;27;20110;-80
2023/08/21 12:01:57;;;;;;;3.33;1.80;;;28.70;81.60;;;;;;5135251;27;20090;-82
2023/08/21 12:04:22;;;;;;;3.95;1.25;;;28.70;80.60;;;;;;5134813;27;20039;-80
2023/08/21 12:06:48;;;;;;;1.75;1.25;;;28.70;79.90;;;;;;5135137;27;20061;-80
2023/08/21 12:09:14;;;;;;;3.45;1.40;;;28.70;79.80;;;;;;5135148;27;20044;-81
2023/08/21 12:11:39;;;;;;;3.05;1.30;;;28.80;79.80;;;;;;5135219;27;20120;-80
2023/08/21 12:14:06;;;;;;;4.55;1.60;;;28.70;80.50;;;;;;5134930;27;20083;-82
2023/08/21 12:16:32;;;;;;;1.30;1.20;;;28.70;80.10;;;;;;5134896;27;20039;-81
2023/08/21 12:18:57;;;;;;;3.63;1.52;;;28.80;80.20;;;;;;5116642;27;20043;-80
2023/08/21 12:21:24;;;;;;;2.38;1.50;;;28.90;79.80;;;;;;5135310;27;20130;-80
2023/08/21 12:23:50;;;;;;;4.47;1.63;;;29.00;80.20;;;;;;5134717;27;20038;-81
2023/08/21 12:26:20;;;;;;;3.00;1.95;;;29.00;79.30;;;;;;5135234;27;20100;-80
2023/08/21 12:28:49;;;;;;;2.58;1.30;;;29.10;80.30;;;;;;5135111;27;20039;-81
2023/08/21 12:31:15;;;;;;;1.73;1.52;;;29.20;80.20;;;;;;5135133;27;20039;-81
2023/08/21 12:33:41;;;;;;;6.03;1.48;;;29.30;80.10;;;;;;5116194;27;20118;-81
2023/08/21 12:36:10;;;;;;;3.30;1.55;;;29.30;80.50;;;;;;5116275;27;20054;-79
2023/08/21 12:38:35;;;;;;;1.48;1.17;;;29.10;80.30;;;;;;5134529;27;20071;-80
2023/08/21 12:41:02;;;;;;;3.25;1.67;;;29.00;81.10;;;;;;5134978;27;20050;-83
2023/08/21 12:43:28;;;;;;;2.97;1.60;;;29.00;80.00;;;;;;5134428;27;20085;-82
2023/08/21 12:45:54;;;;;;;2.40;1.42;;;29.10;80.20;;;;;;5115034;28;20089;-82